createdAt,value
2022-09-24T00:01:26.365Z,6.78
2022-09-24T00:04:00.154Z,7.18
2022-09-24T00:06:28.019Z,7.35
2022-09-24T00:08:55.820Z,7.13
2022-09-24T00:11:25.120Z,6.80
2022-09-24T00:13:53.057Z,6.65
2022-09-24T00:16:21.810Z,7.00
2022-09-24T00:18:48.386Z,6.80
2022-09-24T00:21:21.119Z,7.68
2022-09-24T00:23:53.209Z,7.38
2022-09-24T00:26:39.300Z,6.75
2022-09-24T00:29:07.207Z,6.80
2022-09-24T00:31:33.730Z,7.03
2022-09-24T00:34:01.599Z,6.80
2022-09-24T00:36:28.151Z,7.03
2022-09-24T00:38:57.183Z,7.18
2022-09-24T00:41:27.232Z,6.57
2022-09-24T00:43:54.060Z,6.55
2022-09-24T00:46:32.608Z,7.40
2022-09-24T00:49:04.347Z,6.75
2022-09-24T00:51:32.978Z,6.78
2022-09-24T00:54:04.099Z,7.65
2022-09-24T00:56:33.672Z,7.22
2022-09-24T00:59:02.538Z,7.60
2022-09-24T01:01:29.930Z,7.47
2022-09-24T01:03:58.091Z,7.60
2022-09-24T01:06:25.733Z,7.00
2022-09-24T01:08:53.612Z,6.15
2022-09-24T01:11:47.081Z,6.22
2022-09-24T01:14:23.103Z,6.82
2022-09-24T01:17:11.989Z,7.13
2022-09-24T01:20:14.379Z,7.30
2022-09-24T01:22:40.728Z,6.78
2022-09-24T01:25:31.299Z,6.22
2022-09-24T01:28:31.735Z,6.53
2022-09-24T01:31:16.413Z,5.88
2022-09-24T01:33:46.446Z,6.45
2022-09-24T01:36:15.710Z,6.70
2022-09-24T01:38:45.099Z,6.50
2022-09-24T01:41:13.659Z,5.80
2022-09-24T01:43:40.057Z,5.63
2022-09-24T01:46:07.363Z,6.07
2022-09-24T01:48:37.481Z,6.28
2022-09-24T01:51:22.125Z,5.45
2022-09-24T01:53:57.478Z,5.35
2022-09-24T01:56:52.351Z,5.05
2022-09-24T01:59:48.729Z,5.35
2022-09-24T02:02:34.440Z,5.18
2022-09-24T02:05:14.726Z,4.75
2022-09-24T02:07:53.201Z,4.45
2022-09-24T02:10:29.759Z,4.03
2022-09-24T02:15:32.755Z,4.10
2022-09-24T02:18:06.105Z,4.40
2022-09-24T02:20:36.007Z,3.97
2022-09-24T02:23:04.807Z,4.22
2022-09-24T02:25:42.126Z,4.15
2022-09-24T02:28:08.593Z,3.75
2022-09-24T02:30:42.491Z,4.00
2022-09-24T02:33:32.452Z,3.90
2022-09-24T02:35:59.011Z,4.25
2022-09-24T02:38:25.514Z,3.63
2022-09-24T02:40:58.363Z,3.33
2022-09-24T02:43:25.936Z,3.45
2022-09-24T02:45:52.290Z,3.60
2022-09-24T02:48:18.730Z,3.60
2022-09-24T02:50:46.033Z,3.88
2022-09-24T02:53:12.421Z,3.53
2022-09-24T02:55:38.809Z,3.35
2022-09-24T02:58:05.224Z,3.60
2022-09-24T03:00:32.595Z,3.72
2022-09-24T03:02:59.235Z,3.65
2022-09-24T03:05:25.655Z,3.40
2022-09-24T03:07:52.000Z,3.53
2022-09-24T03:10:19.006Z,3.60
2022-09-24T03:12:45.372Z,3.40
2022-09-24T03:15:11.793Z,3.55
2022-09-24T03:17:38.161Z,3.60
2022-09-24T03:20:06.165Z,3.85
2022-09-24T03:22:32.667Z,3.72
2022-09-24T03:24:59.044Z,3.50
2022-09-24T03:27:25.434Z,3.78
2022-09-24T03:30:10.571Z,3.10
2022-09-24T03:32:36.944Z,3.60
2022-09-24T03:35:03.936Z,3.58
2022-09-24T03:37:30.864Z,3.70
2022-09-24T03:39:58.308Z,3.70
2022-09-24T03:42:24.657Z,3.83
2022-09-24T03:44:54.107Z,3.50
2022-09-24T03:47:20.464Z,3.70
2022-09-24T03:49:46.851Z,3.95
2022-09-24T03:52:13.207Z,3.95
2022-09-24T03:54:39.566Z,4.28
2022-09-24T03:57:05.959Z,4.43
2022-09-24T03:59:32.336Z,4.28
2022-09-24T04:01:58.741Z,4.30
2022-09-24T04:04:25.122Z,3.63
2022-09-24T04:06:52.671Z,3.60
2022-09-24T04:09:19.039Z,4.55
2022-09-24T04:11:45.393Z,5.10
2022-09-24T04:14:11.851Z,4.57
2022-09-24T04:16:38.310Z,4.75
2022-09-24T04:19:04.796Z,5.75
2022-09-24T04:21:31.804Z,4.70
2022-09-24T04:23:58.174Z,5.13
2022-09-24T04:26:24.532Z,5.10
2022-09-24T04:28:50.903Z,5.15
2022-09-24T04:31:17.348Z,4.50
2022-09-24T04:33:43.833Z,4.72
2022-09-24T04:36:10.249Z,4.43
2022-09-24T04:38:36.659Z,4.32
2022-09-24T04:41:07.939Z,3.95
2022-09-24T04:43:36.776Z,4.10
2022-09-24T04:46:04.069Z,3.97
2022-09-24T04:48:31.020Z,3.90
2022-09-24T04:50:57.658Z,3.88
2022-09-24T04:53:24.835Z,3.78
2022-09-24T04:55:51.215Z,3.85
2022-09-24T04:58:19.897Z,3.85
2022-09-24T05:00:47.616Z,3.70
2022-09-24T05:03:14.174Z,3.60
2022-09-24T05:05:40.587Z,3.85
2022-09-24T05:08:06.988Z,3.70
2022-09-24T05:10:33.464Z,4.07
2022-09-24T05:13:00.878Z,3.92
2022-09-24T05:15:27.375Z,4.35
2022-09-24T05:17:53.762Z,3.83
2022-09-24T05:20:20.667Z,4.05
2022-09-24T05:22:49.500Z,3.80
2022-09-24T05:25:17.931Z,3.88
2022-09-24T05:27:49.514Z,3.83
2022-09-24T05:30:16.719Z,3.95
2022-09-24T05:32:43.385Z,3.75
2022-09-24T05:35:10.126Z,3.25
2022-09-24T05:37:38.330Z,4.10
2022-09-24T05:40:32.706Z,3.75
2022-09-24T05:43:01.568Z,3.30
2022-09-24T05:45:29.725Z,3.95
2022-09-24T05:47:56.281Z,4.55
2022-09-24T05:50:22.844Z,5.22
2022-09-24T05:52:49.290Z,4.45
2022-09-24T05:55:15.922Z,4.35
2022-09-24T05:57:42.315Z,3.83
2022-09-24T06:00:09.245Z,4.20
2022-09-24T06:02:35.769Z,4.20
2022-09-24T06:05:02.228Z,4.05
2022-09-24T06:07:28.599Z,3.95
2022-09-24T06:09:55.474Z,4.43
2022-09-24T06:12:23.510Z,4.07
2022-09-24T06:14:49.975Z,4.10
2022-09-24T06:17:16.802Z,4.32
2022-09-24T06:19:43.253Z,4.05
2022-09-24T06:22:09.611Z,4.18
2022-09-24T06:24:35.979Z,4.72
2022-09-24T06:27:02.341Z,5.93
2022-09-24T06:29:28.719Z,4.65
2022-09-24T06:31:55.117Z,4.10
2022-09-24T06:34:21.493Z,4.43
2022-09-24T06:36:47.857Z,4.40
2022-09-24T06:39:18.832Z,4.18
2022-09-24T06:41:46.536Z,4.60
2022-09-24T06:44:12.912Z,4.32
2022-09-24T06:46:39.378Z,3.90
2022-09-24T06:49:05.770Z,4.13
2022-09-24T06:51:32.124Z,3.78
2022-09-24T06:53:58.482Z,3.92
2022-09-24T06:56:24.836Z,4.25
2022-09-24T06:58:51.250Z,4.22
2022-09-24T07:01:17.660Z,3.10
2022-09-24T07:03:44.158Z,2.70
2022-09-24T07:06:10.562Z,2.20
2022-09-24T07:08:37.028Z,2.15
2022-09-24T07:11:04.089Z,1.95
2022-09-24T07:13:30.594Z,5.03
2022-09-24T07:15:57.073Z,2.95
2022-09-24T07:18:23.503Z,3.28
2022-09-24T07:20:55.327Z,2.30
2022-09-24T07:23:22.786Z,1.85
2022-09-24T07:25:50.414Z,1.90
2022-09-24T07:28:17.274Z,2.28
2022-09-24T07:30:43.660Z,2.25
2022-09-24T07:33:10.194Z,2.28
2022-09-24T07:35:40.095Z,2.10
2022-09-24T07:38:11.892Z,2.67
2022-09-24T07:40:38.492Z,3.10
2022-09-24T07:43:31.999Z,3.42
2022-09-24T07:45:59.465Z,3.20
2022-09-24T07:48:28.953Z,3.88
2022-09-24T07:50:55.889Z,3.40
2022-09-24T07:53:22.267Z,2.80
2022-09-24T07:55:59.155Z,3.00
2022-09-24T07:58:25.617Z,3.75
2022-09-24T08:00:53.172Z,3.22
2022-09-24T08:03:20.487Z,3.15
2022-09-24T08:05:49.229Z,3.03
2022-09-24T08:08:24.572Z,4.30
2022-09-24T08:10:51.008Z,3.50
2022-09-24T08:13:26.868Z,3.50
2022-09-24T08:16:06.023Z,2.92
2022-09-24T08:18:32.931Z,2.55
2022-09-24T08:21:06.344Z,3.33
2022-09-24T08:23:34.390Z,3.38
2022-09-24T08:26:02.596Z,2.60
2022-09-24T08:28:31.340Z,2.63
2022-09-24T08:31:00.409Z,2.63
2022-09-24T08:33:29.023Z,2.63
2022-09-24T08:35:55.486Z,2.50
2022-09-24T08:38:21.959Z,3.08
2022-09-24T08:41:10.254Z,3.10
2022-09-24T08:44:01.993Z,3.42
2022-09-24T08:47:16.847Z,3.28
2022-09-24T08:49:58.337Z,3.42
2022-09-24T08:52:42.661Z,3.65
2022-09-24T08:55:34.095Z,3.40
2022-09-24T08:58:17.014Z,3.65
2022-09-24T09:00:50.081Z,3.47
2022-09-24T09:03:24.888Z,4.07
2022-09-24T09:06:01.575Z,4.40
2022-09-24T09:09:06.426Z,4.75
2022-09-24T09:11:36.712Z,5.07
2022-09-24T09:14:51.249Z,5.38
2022-09-24T09:17:33.891Z,5.88
2022-09-24T09:20:05.820Z,4.43
2022-09-24T09:22:39.307Z,3.13
2022-09-24T09:25:18.219Z,2.70
2022-09-24T09:27:44.614Z,2.63
2022-09-24T09:30:16.840Z,2.03
2022-09-24T09:33:08.676Z,2.15
2022-09-24T09:35:45.748Z,2.45
2022-09-24T09:38:40.375Z,2.28
2022-09-24T09:41:29.151Z,2.30
2022-09-24T09:44:09.608Z,2.25
2022-09-24T09:46:43.736Z,2.35
2022-09-24T09:49:10.585Z,2.10
2022-09-24T09:51:54.917Z,2.08
2022-09-24T09:54:43.361Z,2.10
2022-09-24T09:57:18.891Z,1.80
2022-09-24T09:59:48.192Z,1.88
2022-09-24T10:02:24.800Z,1.80
2022-09-24T10:05:05.504Z,1.92
2022-09-24T10:07:32.221Z,2.25
2022-09-24T10:10:20.227Z,1.75
2022-09-24T10:13:08.837Z,2.22
2022-09-24T10:15:55.243Z,2.08
2022-09-24T10:18:30.393Z,1.88
2022-09-24T10:20:58.679Z,1.90
2022-09-24T10:23:44.679Z,2.00
2022-09-24T10:26:11.284Z,1.67
2022-09-24T10:29:19.608Z,1.98
2022-09-24T10:32:03.010Z,1.70
2022-09-24T10:34:29.836Z,1.50
2022-09-24T10:37:16.711Z,1.80
2022-09-24T10:39:43.271Z,1.85
2022-09-24T10:42:26.801Z,1.95
2022-09-24T10:44:54.265Z,2.38
2022-09-24T10:47:40.618Z,1.85
2022-09-24T10:50:32.682Z,1.73
2022-09-24T10:53:08.436Z,1.83
2022-09-24T10:55:55.455Z,1.80
2022-09-24T10:58:59.560Z,1.88
2022-09-24T11:01:49.305Z,2.17
2022-09-24T11:05:12.153Z,2.05
2022-09-24T11:07:57.303Z,1.70
2022-09-24T11:10:29.902Z,1.90
2022-09-24T11:13:15.458Z,1.90
2022-09-24T11:16:11.741Z,1.80
2022-09-24T11:19:23.286Z,1.90
2022-09-24T11:22:11.555Z,2.03
2022-09-24T11:24:56.405Z,4.55
2022-09-24T11:27:47.119Z,1.80
2022-09-24T11:30:16.220Z,2.40
2022-09-24T11:33:13.620Z,1.67
2022-09-24T11:35:56.513Z,1.88
2022-09-24T11:38:35.498Z,2.00
2022-09-24T11:41:14.604Z,2.00
2022-09-24T11:43:51.532Z,1.67
2022-09-24T11:46:39.991Z,1.73
2022-09-24T11:49:50.256Z,1.58
2022-09-24T11:52:40.826Z,1.92
2022-09-24T11:55:34.403Z,1.60
2022-09-24T11:58:19.298Z,2.17
2022-09-24T12:01:09.028Z,2.08
2022-09-24T12:03:58.238Z,1.95
2022-09-24T12:06:52.388Z,2.38
2022-09-24T12:09:41.186Z,1.90
2022-09-24T12:12:22.872Z,1.77
2022-09-24T12:15:02.694Z,1.48
2022-09-24T12:17:39.277Z,1.67
2022-09-24T12:20:30.525Z,1.90
2022-09-24T12:23:04.234Z,1.80
2022-09-24T12:26:00.876Z,1.80
2022-09-24T12:28:52.995Z,1.70
2022-09-24T12:32:22.757Z,1.92
2022-09-24T12:34:59.007Z,1.60
2022-09-24T12:37:31.856Z,1.95
2022-09-24T12:40:16.841Z,1.70
2022-09-24T12:42:49.634Z,1.85
2022-09-24T12:45:21.017Z,1.70
2022-09-24T12:47:54.095Z,1.80
2022-09-24T12:50:38.910Z,1.90
2022-09-24T12:53:24.688Z,1.80
2022-09-24T12:55:52.531Z,2.17
2022-09-24T12:58:41.126Z,1.58
2022-09-24T13:01:26.751Z,1.73
2022-09-24T13:04:15.041Z,2.10
2022-09-24T13:06:46.482Z,1.88
2022-09-24T13:09:34.227Z,1.98
2022-09-24T13:12:03.326Z,2.00
2022-09-24T13:14:32.420Z,1.95
2022-09-24T13:17:05.103Z,2.08
2022-09-24T13:19:42.474Z,1.98
2022-09-24T13:22:25.246Z,2.00
2022-09-24T13:25:04.470Z,2.00
2022-09-24T13:27:30.775Z,2.03
2022-09-24T13:30:08.237Z,2.15
2022-09-24T13:32:50.911Z,1.85
2022-09-24T13:35:24.383Z,2.20
2022-09-24T13:37:57.241Z,2.17
2022-09-24T13:40:29.871Z,1.80
2022-09-24T13:43:04.066Z,2.80
2022-09-24T13:45:36.948Z,2.40
2022-09-24T13:48:35.726Z,2.28
2022-09-24T13:51:11.159Z,2.03
2022-09-24T13:53:45.127Z,2.30
2022-09-24T13:56:20.026Z,2.53
2022-09-24T13:58:51.108Z,2.45
2022-09-24T14:01:43.685Z,1.95
2022-09-24T14:04:20.580Z,2.55
2022-09-24T14:06:52.719Z,2.58
2022-09-24T14:09:27.104Z,2.63
2022-09-24T14:11:56.421Z,2.30
2022-09-24T14:14:27.884Z,2.38
2022-09-24T14:17:05.327Z,2.38
2022-09-24T14:19:34.426Z,2.47
2022-09-24T14:22:03.090Z,1.92
2022-09-24T14:25:00.160Z,2.28
2022-09-24T14:27:28.559Z,2.42
2022-09-24T14:29:58.107Z,2.60
2022-09-24T14:32:38.138Z,2.58
2022-09-24T14:35:06.342Z,2.40
2022-09-24T14:37:39.524Z,3.00
2022-09-24T14:40:15.386Z,2.50
2022-09-24T14:43:03.257Z,2.38
2022-09-24T14:45:37.780Z,2.33
2022-09-24T14:48:34.398Z,2.40
2022-09-24T14:51:00.915Z,2.60
2022-09-24T14:53:35.957Z,3.30
2022-09-24T14:56:26.244Z,2.75
2022-09-24T14:58:52.797Z,3.60
2022-09-24T15:01:23.461Z,4.00
2022-09-24T15:03:53.155Z,3.72
2022-09-24T15:06:26.080Z,3.80
2022-09-24T15:09:02.019Z,4.13
2022-09-24T15:11:34.526Z,3.90
2022-09-24T15:14:36.112Z,4.72
2022-09-24T15:17:22.930Z,4.15
2022-09-24T15:19:54.672Z,4.72
2022-09-24T15:22:26.606Z,4.72
2022-09-24T15:25:00.278Z,4.80
2022-09-24T15:27:38.334Z,5.90
2022-09-24T15:30:10.506Z,5.40
2022-09-24T15:32:37.155Z,4.25
2022-09-24T15:35:09.419Z,5.55
2022-09-24T15:37:39.463Z,4.60
2022-09-24T15:40:09.473Z,5.00
2022-09-24T15:42:35.893Z,5.40
2022-09-24T15:45:02.255Z,5.38
2022-09-24T15:47:28.670Z,5.60
2022-09-24T15:49:55.050Z,4.70
2022-09-24T15:52:31.768Z,5.03
2022-09-24T15:55:00.771Z,5.55
2022-09-24T15:57:27.432Z,5.07
2022-09-24T15:59:54.272Z,5.25
2022-09-24T16:02:33.319Z,5.47
2022-09-24T16:05:03.549Z,5.97
2022-09-24T16:07:31.700Z,5.68
2022-09-24T16:09:59.266Z,7.38
2022-09-24T16:12:28.162Z,7.20
2022-09-24T16:14:59.029Z,8.02
2022-09-24T16:17:30.796Z,6.78
2022-09-24T16:19:58.325Z,7.70
2022-09-24T16:22:25.028Z,7.20
2022-09-24T16:24:54.143Z,7.47
2022-09-24T16:27:27.506Z,7.18
2022-09-24T16:29:53.969Z,6.07
2022-09-24T16:32:21.411Z,6.15
2022-09-24T16:34:49.917Z,5.88
2022-09-24T16:37:18.346Z,6.18
2022-09-24T16:39:45.983Z,6.72
2022-09-24T16:42:12.393Z,6.30
2022-09-24T16:44:38.824Z,6.78
2022-09-24T16:47:05.233Z,6.13
2022-09-24T16:49:42.767Z,6.63
2022-09-24T16:52:09.149Z,6.20
2022-09-24T16:54:36.742Z,6.35
2022-09-24T16:57:10.232Z,8.52
2022-09-24T16:59:47.897Z,7.88
2022-09-24T17:02:14.399Z,7.30
2022-09-24T17:04:41.663Z,6.85
2022-09-24T17:07:13.265Z,7.05
2022-09-24T17:10:00.621Z,8.80
2022-09-24T17:12:29.235Z,7.63
2022-09-24T17:14:57.565Z,7.75
2022-09-24T17:17:25.950Z,8.32
2022-09-24T17:19:52.339Z,8.35
2022-09-24T17:22:18.797Z,8.05
2022-09-24T17:24:45.201Z,6.82
2022-09-24T17:27:11.682Z,7.22
2022-09-24T17:29:38.098Z,7.03
2022-09-24T17:32:04.530Z,7.70
2022-09-24T17:34:31.901Z,10.10
2022-09-24T17:37:00.386Z,9.13
2022-09-24T17:39:28.102Z,8.23
2022-09-24T17:41:54.520Z,7.78
2022-09-24T17:44:21.976Z,9.05
2022-09-24T17:46:52.466Z,8.95
2022-09-24T17:49:26.035Z,9.13
2022-09-24T20:03:07.024Z,7.45
2022-09-24T20:05:34.641Z,7.32
2022-09-24T20:08:03.415Z,8.32
2022-09-24T20:10:31.269Z,8.65
2022-09-24T20:12:58.246Z,8.52
2022-09-24T20:15:24.793Z,9.23
2022-09-24T20:17:52.632Z,8.50
2022-09-24T20:20:19.120Z,10.10
2022-09-24T20:22:45.490Z,11.02
2022-09-24T20:25:15.294Z,11.88
2022-09-24T20:27:55.349Z,10.95
2022-09-24T20:30:23.469Z,9.15
2022-09-24T20:32:50.698Z,9.95
2022-09-24T20:35:17.461Z,9.95
2022-09-24T20:37:44.502Z,9.13
2022-09-24T20:40:11.102Z,8.60
2022-09-24T20:42:38.496Z,7.93
2022-09-24T20:45:06.785Z,8.40
2022-09-24T20:47:33.313Z,8.50
2022-09-24T20:49:59.700Z,8.07
2022-09-24T20:52:26.100Z,7.13
2022-09-24T20:54:54.557Z,7.57
2022-09-24T20:57:20.967Z,8.30
2022-09-24T20:59:48.063Z,7.85
2022-09-24T21:02:15.468Z,7.15
2022-09-24T21:04:42.005Z,5.63
2022-09-24T21:07:08.402Z,5.90
2022-09-24T21:09:34.819Z,6.40
2022-09-24T21:12:03.551Z,5.10
2022-09-24T21:14:29.958Z,6.25
2022-09-24T21:16:56.483Z,5.50
2022-09-24T21:19:22.895Z,5.70
2022-09-24T21:21:49.277Z,6.40
2022-09-24T21:24:16.204Z,6.30
2022-09-24T21:26:45.063Z,6.07
2022-09-24T21:29:16.529Z,5.10
2022-09-24T21:31:45.934Z,5.63
2022-09-24T21:34:14.256Z,6.25
2022-09-24T21:36:44.607Z,6.05
2022-09-24T21:39:18.991Z,5.70
2022-09-24T21:41:49.898Z,6.20
2022-09-24T21:44:17.690Z,6.60
2022-09-24T21:46:44.665Z,7.15
2022-09-24T21:49:11.853Z,7.55
2022-09-24T21:51:43.371Z,9.48
2022-09-24T21:54:14.089Z,10.02
2022-09-24T21:56:40.510Z,10.02
2022-09-24T21:59:26.881Z,12.88
2022-09-24T22:01:54.466Z,11.60
2022-09-24T22:04:21.737Z,10.95
2022-09-24T22:06:48.684Z,10.57
2022-09-24T22:09:15.819Z,12.40
2022-09-24T22:11:42.955Z,10.20
2022-09-24T22:14:10.335Z,9.45
2022-09-24T22:16:36.844Z,9.43
2022-09-24T22:19:06.066Z,9.70
2022-09-24T22:21:34.257Z,9.15
2022-09-24T22:24:01.171Z,10.57
2022-09-24T22:26:29.503Z,10.77
2022-09-24T22:28:56.615Z,11.77
2022-09-24T22:31:23.238Z,12.45
2022-09-24T22:34:08.418Z,11.25
2022-09-24T22:36:36.092Z,11.27
2022-09-24T22:39:05.061Z,10.77
2022-09-24T22:41:32.642Z,12.73
2022-09-24T22:43:59.355Z,13.10
2022-09-24T22:46:26.963Z,14.27
2022-09-24T22:48:54.758Z,14.25
2022-09-24T22:51:21.260Z,15.77
2022-09-24T22:53:47.663Z,18.70
2022-09-24T22:56:16.967Z,27.27
2022-09-24T22:58:45.046Z,16.98
2022-09-24T23:01:13.567Z,16.13
2022-09-24T23:03:41.033Z,19.70
2022-09-24T23:06:08.283Z,16.75
2022-09-24T23:08:36.862Z,13.73
2022-09-24T23:11:20.117Z,12.93
2022-09-24T23:13:52.576Z,13.18
2022-09-24T23:16:25.529Z,12.40
2022-09-24T23:18:55.488Z,13.35
2022-09-24T23:21:24.007Z,15.38
2022-09-24T23:23:55.026Z,12.82
2022-09-24T23:26:22.891Z,12.07
2022-09-24T23:28:52.705Z,11.63
2022-09-24T23:31:22.145Z,12.18
2022-09-24T23:33:49.792Z,12.10
2022-09-24T23:36:16.506Z,11.05
2022-09-24T23:38:43.854Z,11.18
2022-09-24T23:41:12.900Z,13.00
2022-09-24T23:43:40.993Z,14.18
2022-09-24T23:46:08.274Z,13.18
2022-09-24T23:48:35.080Z,12.52
2022-09-24T23:51:01.481Z,11.20
2022-09-24T23:53:27.929Z,11.13
2022-09-24T23:55:55.336Z,11.25
2022-09-24T23:58:23.536Z,11.45
